sensor_id;sensor_type;location;lat;lon;timestamp;P1;P2;P0
49656;PMS5003;71194;38.900;-77.124;2023-07-13T00:00:30;15;14;
49656;PMS5003;71194;38.900;-77.124;2023-07-13T00:02:58;10;8;
49656;PMS5003;71194;38.900;-77.124;2023-07-13T00:05:26;8;8;
49656;PMS5003;71194;38.900;-77.124;2023-07-13T00:07:54;16;15;
49656;PMS5003;71194;38.900;-77.124;2023-07-13T00:10:22;14;13;
49656;PMS5003;71194;38.900;-77.124;2023-07-13T00:12:50;11;11;
49656;PMS5003;71194;38.900;-77.124;2023-07-13T00:15:18;14;13;
49656;PMS5003;71194;38.900;-77.124;2023-07-13T00:17:48;13;13;
49656;PMS5003;71194;38.900;-77.124;2023-07-13T00:20:16;11;11;
49656;PMS5003;71194;38.900;-77.124;2023-07-13T00:22:44;15;12;
49656;PMS5003;71194;38.900;-77.124;2023-07-13T00:25:12;13;13;
49656;PMS5003;71194;38.900;-77.124;2023-07-13T00:27:41;10;10;
49656;PMS5003;71194;38.900;-77.124;2023-07-13T00:30:09;13;10;
49656;PMS5003;71194;38.900;-77.124;2023-07-13T00:32:38;13;13;
49656;PMS5003;71194;38.900;-77.124;2023-07-13T00:35:06;16;14;
49656;PMS5003;71194;38.900;-77.124;2023-07-13T00:37:35;20;17;
49656;PMS5003;71194;38.900;-77.124;2023-07-13T00:40:04;17;14;
49656;PMS5003;71194;38.900;-77.124;2023-07-13T00:42:33;16;16;
49656;PMS5003;71194;38.900;-77.124;2023-07-13T00:45:03;15;14;
49656;PMS5003;71194;38.900;-77.124;2023-07-13T00:47:33;15;14;
49656;PMS5003;71194;38.900;-77.124;2023-07-13T00:50:01;19;16;
49656;PMS5003;71194;38.900;-77.124;2023-07-13T00:52:30;12;12;
49656;PMS5003;71194;38.900;-77.124;2023-07-13T00:54:58;12;11;
49656;PMS5003;71194;38.900;-77.124;2023-07-13T00:57:26;14;10;
49656;PMS5003;71194;38.900;-77.124;2023-07-13T00:59:55;16;11;
49656;PMS5003;71194;38.900;-77.124;2023-07-13T01:02:27;11;11;
49656;PMS5003;71194;38.900;-77.124;2023-07-13T01:04:56;11;10;
49656;PMS5003;71194;38.900;-77.124;2023-07-13T01:07:24;8;8;
49656;PMS5003;71194;38.900;-77.124;2023-07-13T01:09:52;10;10;
49656;PMS5003;71194;38.900;-77.124;2023-07-13T01:12:20;13;12;
49656;PMS5003;71194;38.900;-77.124;2023-07-13T01:14:48;9;9;
49656;PMS5003;71194;38.900;-77.124;2023-07-13T01:17:26;12;12;
49656;PMS5003;71194;38.900;-77.124;2023-07-13T01:19:55;10;9;
49656;PMS5003;71194;38.900;-77.124;2023-07-13T01:22:24;15;15;
49656;PMS5003;71194;38.900;-77.124;2023-07-13T01:24:52;19;17;
49656;PMS5003;71194;38.900;-77.124;2023-07-13T01:27:21;22;22;
49656;PMS5003;71194;38.900;-77.124;2023-07-13T01:29:52;15;15;
49656;PMS5003;71194;38.900;-77.124;2023-07-13T01:32:20;15;14;
49656;PMS5003;71194;38.900;-77.124;2023-07-13T01:34:51;15;14;
49656;PMS5003;71194;38.900;-77.124;2023-07-13T01:37:20;14;14;
49656;PMS5003;71194;38.900;-77.124;2023-07-13T01:39:49;18;16;
49656;PMS5003;71194;38.900;-77.124;2023-07-13T01:42:17;23;22;
49656;PMS5003;71194;38.900;-77.124;2023-07-13T01:44:45;15;14;
49656;PMS5003;71194;38.900;-77.124;2023-07-13T01:47:13;17;16;
49656;PMS5003;71194;38.900;-77.124;2023-07-13T01:49:41;13;13;
49656;PMS5003;71194;38.900;-77.124;2023-07-13T01:52:09;18;18;
49656;PMS5003;71194;38.900;-77.124;2023-07-13T01:54:36;21;20;
49656;PMS5003;71194;38.900;-77.124;2023-07-13T01:57:04;19;18;
49656;PMS5003;71194;38.900;-77.124;2023-07-13T01:59:32;27;21;
49656;PMS5003;71194;38.900;-77.124;2023-07-13T02:02:00;20;17;
49656;PMS5003;71194;38.900;-77.124;2023-07-13T02:04:28;26;24;
49656;PMS5003;71194;38.900;-77.124;2023-07-13T02:06:56;22;22;
49656;PMS5003;71194;38.900;-77.124;2023-07-13T02:09:24;21;21;
49656;PMS5003;71194;38.900;-77.124;2023-07-13T02:11:52;18;18;
49656;PMS5003;71194;38.900;-77.124;2023-07-13T02:14:19;16;14;
49656;PMS5003;71194;38.900;-77.124;2023-07-13T02:16:47;21;19;
49656;PMS5003;71194;38.900;-77.124;2023-07-13T02:19:15;22;21;
49656;PMS5003;71194;38.900;-77.124;2023-07-13T02:21:43;21;21;
49656;PMS5003;71194;38.900;-77.124;2023-07-13T02:24:11;20;20;
49656;PMS5003;71194;38.900;-77.124;2023-07-13T02:26:39;22;19;
49656;PMS5003;71194;38.900;-77.124;2023-07-13T02:29:07;20;20;
49656;PMS5003;71194;38.900;-77.124;2023-07-13T02:31:35;19;18;
49656;PMS5003;71194;38.900;-77.124;2023-07-13T02:34:03;19;19;
49656;PMS5003;71194;38.900;-77.124;2023-07-13T02:36:31;18;18;
49656;PMS5003;71194;38.900;-77.124;2023-07-13T02:39:00;21;18;
49656;PMS5003;71194;38.900;-77.124;2023-07-13T02:41:30;13;13;
49656;PMS5003;71194;38.900;-77.124;2023-07-13T02:43:58;18;14;
49656;PMS5003;71194;38.900;-77.124;2023-07-13T02:46:26;18;18;
49656;PMS5003;71194;38.900;-77.124;2023-07-13T02:48:54;15;15;
49656;PMS5003;71194;38.900;-77.124;2023-07-13T02:51:22;16;15;
49656;PMS5003;71194;38.900;-77.124;2023-07-13T02:53:50;21;18;
49656;PMS5003;71194;38.900;-77.124;2023-07-13T02:56:18;22;21;
49656;PMS5003;71194;38.900;-77.124;2023-07-13T02:58:49;19;17;
49656;PMS5003;71194;38.900;-77.124;2023-07-13T03:01:17;14;14;
49656;PMS5003;71194;38.900;-77.124;2023-07-13T03:03:45;25;23;
49656;PMS5003;71194;38.900;-77.124;2023-07-13T03:06:14;24;21;
49656;PMS5003;71194;38.900;-77.124;2023-07-13T03:08:42;24;21;
49656;PMS5003;71194;38.900;-77.124;2023-07-13T03:11:11;20;20;
49656;PMS5003;71194;38.900;-77.124;2023-07-13T03:13:41;20;20;
49656;PMS5003;71194;38.900;-77.124;2023-07-13T03:16:09;23;23;
49656;PMS5003;71194;38.900;-77.124;2023-07-13T03:18:38;20;18;
49656;PMS5003;71194;38.900;-77.124;2023-07-13T03:21:06;24;22;
49656;PMS5003;71194;38.900;-77.124;2023-07-13T03:23:34;19;19;
49656;PMS5003;71194;38.900;-77.124;2023-07-13T03:26:02;23;21;
49656;PMS5003;71194;38.900;-77.124;2023-07-13T03:28:32;21;21;
49656;PMS5003;71194;38.900;-77.124;2023-07-13T03:31:00;26;21;
49656;PMS5003;71194;38.900;-77.124;2023-07-13T03:33:31;22;19;
49656;PMS5003;71194;38.900;-77.124;2023-07-13T03:35:58;25;23;
49656;PMS5003;71194;38.900;-77.124;2023-07-13T03:38:27;28;24;
49656;PMS5003;71194;38.900;-77.124;2023-07-13T03:40:55;32;27;
49656;PMS5003;71194;38.900;-77.124;2023-07-13T03:43:22;28;24;
49656;PMS5003;71194;38.900;-77.124;2023-07-13T03:45:50;25;23;
49656;PMS5003;71194;38.900;-77.124;2023-07-13T03:48:18;25;23;
49656;PMS5003;71194;38.900;-77.124;2023-07-13T03:50:47;24;21;
49656;PMS5003;71194;38.900;-77.124;2023-07-13T03:53:14;26;24;
49656;PMS5003;71194;38.900;-77.124;2023-07-13T03:55:42;20;20;
49656;PMS5003;71194;38.900;-77.124;2023-07-13T03:58:27;26;25;
49656;PMS5003;71194;38.900;-77.124;2023-07-13T04:00:57;20;17;
49656;PMS5003;71194;38.900;-77.124;2023-07-13T04:03:27;26;24;
49656;PMS5003;71194;38.900;-77.124;2023-07-13T04:05:55;25;25;
49656;PMS5003;71194;38.900;-77.124;2023-07-13T04:08:23;24;24;
49656;PMS5003;71194;38.900;-77.124;2023-07-13T04:10:51;25;25;
49656;PMS5003;71194;38.900;-77.124;2023-07-13T04:13:19;25;25;
49656;PMS5003;71194;38.900;-77.124;2023-07-13T04:15:46;24;19;
49656;PMS5003;71194;38.900;-77.124;2023-07-13T04:18:14;26;23;
49656;PMS5003;71194;38.900;-77.124;2023-07-13T04:20:43;22;19;
49656;PMS5003;71194;38.900;-77.124;2023-07-13T04:23:11;27;22;
49656;PMS5003;71194;38.900;-77.124;2023-07-13T04:25:39;23;22;
49656;PMS5003;71194;38.900;-77.124;2023-07-13T04:28:11;22;18;
49656;PMS5003;71194;38.900;-77.124;2023-07-13T04:30:39;25;22;
49656;PMS5003;71194;38.900;-77.124;2023-07-13T04:33:07;22;20;
49656;PMS5003;71194;38.900;-77.124;2023-07-13T04:35:35;25;21;
49656;PMS5003;71194;38.900;-77.124;2023-07-13T04:38:03;19;19;
49656;PMS5003;71194;38.900;-77.124;2023-07-13T04:40:31;18;18;
49656;PMS5003;71194;38.900;-77.124;2023-07-13T04:42:59;16;15;
49656;PMS5003;71194;38.900;-77.124;2023-07-13T04:45:27;15;14;
49656;PMS5003;71194;38.900;-77.124;2023-07-13T04:47:55;16;15;
49656;PMS5003;71194;38.900;-77.124;2023-07-13T04:50:24;13;12;
49656;PMS5003;71194;38.900;-77.124;2023-07-13T04:52:52;16;15;
49656;PMS5003;71194;38.900;-77.124;2023-07-13T04:55:20;18;17;
49656;PMS5003;71194;38.900;-77.124;2023-07-13T04:57:47;18;17;
49656;PMS5003;71194;38.900;-77.124;2023-07-13T05:00:15;19;18;
49656;PMS5003;71194;38.900;-77.124;2023-07-13T05:02:43;17;15;
49656;PMS5003;71194;38.900;-77.124;2023-07-13T05:05:12;20;20;
49656;PMS5003;71194;38.900;-77.124;2023-07-13T05:07:39;22;19;
49656;PMS5003;71194;38.900;-77.124;2023-07-13T05:10:08;22;22;
49656;PMS5003;71194;38.900;-77.124;2023-07-13T05:12:37;29;27;
49656;PMS5003;71194;38.900;-77.124;2023-07-13T05:15:05;25;23;
49656;PMS5003;71194;38.900;-77.124;2023-07-13T05:17:33;26;22;
49656;PMS5003;71194;38.900;-77.124;2023-07-13T05:20:02;19;17;
49656;PMS5003;71194;38.900;-77.124;2023-07-13T05:22:29;18;16;
49656;PMS5003;71194;38.900;-77.124;2023-07-13T05:24:57;19;15;
49656;PMS5003;71194;38.900;-77.124;2023-07-13T05:27:25;21;21;
49656;PMS5003;71194;38.900;-77.124;2023-07-13T05:29:53;23;23;
49656;PMS5003;71194;38.900;-77.124;2023-07-13T05:32:20;24;21;
49656;PMS5003;71194;38.900;-77.124;2023-07-13T05:34:48;21;20;
49656;PMS5003;71194;38.900;-77.124;2023-07-13T05:37:16;25;22;
49656;PMS5003;71194;38.900;-77.124;2023-07-13T05:39:43;24;22;
49656;PMS5003;71194;38.900;-77.124;2023-07-13T05:42:11;19;18;
49656;PMS5003;71194;38.900;-77.124;2023-07-13T05:44:39;20;19;
49656;PMS5003;71194;38.900;-77.124;2023-07-13T05:47:07;32;31;
49656;PMS5003;71194;38.900;-77.124;2023-07-13T05:49:35;22;21;
49656;PMS5003;71194;38.900;-77.124;2023-07-13T05:52:03;26;24;
49656;PMS5003;71194;38.900;-77.124;2023-07-13T05:54:31;25;24;
49656;PMS5003;71194;38.900;-77.124;2023-07-13T05:56:59;22;21;
49656;PMS5003;71194;38.900;-77.124;2023-07-13T05:59:27;22;21;
49656;PMS5003;71194;38.900;-77.124;2023-07-13T06:01:55;28;27;
49656;PMS5003;71194;38.900;-77.124;2023-07-13T06:04:23;28;26;
49656;PMS5003;71194;38.900;-77.124;2023-07-13T06:06:51;26;24;
49656;PMS5003;71194;38.900;-77.124;2023-07-13T06:09:19;20;20;
49656;PMS5003;71194;38.900;-77.124;2023-07-13T06:11:47;21;19;
49656;PMS5003;71194;38.900;-77.124;2023-07-13T06:14:15;31;25;
49656;PMS5003;71194;38.900;-77.124;2023-07-13T06:16:43;24;24;
49656;PMS5003;71194;38.900;-77.124;2023-07-13T06:19:11;23;20;
49656;PMS5003;71194;38.900;-77.124;2023-07-13T06:21:39;25;24;
49656;PMS5003;71194;38.900;-77.124;2023-07-13T06:24:08;23;22;
49656;PMS5003;71194;38.900;-77.124;2023-07-13T06:26:36;24;22;
49656;PMS5003;71194;38.900;-77.124;2023-07-13T06:29:04;23;22;
49656;PMS5003;71194;38.900;-77.124;2023-07-13T06:31:32;24;22;
49656;PMS5003;71194;38.900;-77.124;2023-07-13T06:34:00;20;19;
49656;PMS5003;71194;38.900;-77.124;2023-07-13T06:36:28;24;22;
49656;PMS5003;71194;38.900;-77.124;2023-07-13T06:38:56;24;23;
49656;PMS5003;71194;38.900;-77.124;2023-07-13T06:41:24;21;18;
49656;PMS5003;71194;38.900;-77.124;2023-07-13T06:43:52;16;16;
49656;PMS5003;71194;38.900;-77.124;2023-07-13T06:46:20;16;16;
49656;PMS5003;71194;38.900;-77.124;2023-07-13T06:48:48;24;23;
49656;PMS5003;71194;38.900;-77.124;2023-07-13T06:51:16;26;23;
49656;PMS5003;71194;38.900;-77.124;2023-07-13T06:53:44;24;22;
49656;PMS5003;71194;38.900;-77.124;2023-07-13T06:56:11;16;16;
49656;PMS5003;71194;38.900;-77.124;2023-07-13T06:58:39;19;19;
49656;PMS5003;71194;38.900;-77.124;2023-07-13T07:01:07;21;21;
49656;PMS5003;71194;38.900;-77.124;2023-07-13T07:03:36;22;20;
49656;PMS5003;71194;38.900;-77.124;2023-07-13T07:06:06;18;15;
49656;PMS5003;71194;38.900;-77.124;2023-07-13T07:08:40;23;22;
49656;PMS5003;71194;38.900;-77.124;2023-07-13T07:11:08;21;19;
49656;PMS5003;71194;38.900;-77.124;2023-07-13T07:13:37;23;23;
49656;PMS5003;71194;38.900;-77.124;2023-07-13T07:16:05;26;22;
49656;PMS5003;71194;38.900;-77.124;2023-07-13T07:18:34;25;23;
49656;PMS5003;71194;38.900;-77.124;2023-07-13T07:21:01;20;19;
49656;PMS5003;71194;38.900;-77.124;2023-07-13T07:23:30;23;23;
49656;PMS5003;71194;38.900;-77.124;2023-07-13T07:25:58;20;17;
49656;PMS5003;71194;38.900;-77.124;2023-07-13T07:28:26;18;18;
49656;PMS5003;71194;38.900;-77.124;2023-07-13T07:30:55;16;16;
49656;PMS5003;71194;38.900;-77.124;2023-07-13T07:33:24;20;17;
49656;PMS5003;71194;38.900;-77.124;2023-07-13T07:35:52;20;20;
49656;PMS5003;71194;38.900;-77.124;2023-07-13T07:38:20;20;18;
49656;PMS5003;71194;38.900;-77.124;2023-07-13T07:40:48;17;16;
49656;PMS5003;71194;38.900;-77.124;2023-07-13T07:43:16;18;16;
49656;PMS5003;71194;38.900;-77.124;2023-07-13T07:45:44;16;15;
49656;PMS5003;71194;38.900;-77.124;2023-07-13T07:48:12;19;18;
49656;PMS5003;71194;38.900;-77.124;2023-07-13T07:50:39;25;23;
49656;PMS5003;71194;38.900;-77.124;2023-07-13T07:53:07;21;18;
49656;PMS5003;71194;38.900;-77.124;2023-07-13T07:55:35;18;18;
49656;PMS5003;71194;38.900;-77.124;2023-07-13T07:58:04;25;21;
49656;PMS5003;71194;38.900;-77.124;2023-07-13T08:00:33;22;22;
49656;PMS5003;71194;38.900;-77.124;2023-07-13T08:03:01;27;23;
49656;PMS5003;71194;38.900;-77.124;2023-07-13T08:05:29;20;20;
49656;PMS5003;71194;38.900;-77.124;2023-07-13T08:07:57;17;15;
49656;PMS5003;71194;38.900;-77.124;2023-07-13T08:10:24;20;17;
49656;PMS5003;71194;38.900;-77.124;2023-07-13T08:12:52;20;19;
49656;PMS5003;71194;38.900;-77.124;2023-07-13T08:15:20;16;16;
49656;PMS5003;71194;38.900;-77.124;2023-07-13T08:17:49;20;17;
49656;PMS5003;71194;38.900;-77.124;2023-07-13T08:20:17;16;15;
49656;PMS5003;71194;38.900;-77.124;2023-07-13T08:22:45;17;15;
49656;PMS5003;71194;38.900;-77.124;2023-07-13T08:25:12;16;14;
49656;PMS5003;71194;38.900;-77.124;2023-07-13T08:27:41;12;12;
49656;PMS5003;71194;38.900;-77.124;2023-07-13T08:30:09;15;15;
49656;PMS5003;71194;38.900;-77.124;2023-07-13T08:32:37;23;22;
49656;PMS5003;71194;38.900;-77.124;2023-07-13T08:35:05;24;23;
49656;PMS5003;71194;38.900;-77.124;2023-07-13T08:37:33;21;19;
49656;PMS5003;71194;38.900;-77.124;2023-07-13T08:40:01;22;19;
49656;PMS5003;71194;38.900;-77.124;2023-07-13T08:42:32;28;23;
49656;PMS5003;71194;38.900;-77.124;2023-07-13T08:45:07;25;21;
49656;PMS5003;71194;38.900;-77.124;2023-07-13T08:47:41;20;18;
49656;PMS5003;71194;38.900;-77.124;2023-07-13T08:50:15;18;15;
49656;PMS5003;71194;38.900;-77.124;2023-07-13T08:52:46;12;12;
49656;PMS5003;71194;38.900;-77.124;2023-07-13T08:55:16;14;12;
49656;PMS5003;71194;38.900;-77.124;2023-07-13T08:57:56;10;10;
49656;PMS5003;71194;38.900;-77.124;2023-07-13T09:00:33;17;15;
49656;PMS5003;71194;38.900;-77.124;2023-07-13T09:03:09;23;20;
49656;PMS5003;71194;38.900;-77.124;2023-07-13T09:05:45;26;25;
49656;PMS5003;71194;38.900;-77.124;2023-07-13T09:08:27;19;19;
49656;PMS5003;71194;38.900;-77.124;2023-07-13T09:11:09;23;21;
49656;PMS5003;71194;38.900;-77.124;2023-07-13T09:13:49;25;22;
49656;PMS5003;71194;38.900;-77.124;2023-07-13T09:16:25;25;23;
49656;PMS5003;71194;38.900;-77.124;2023-07-13T09:18:54;23;20;
49656;PMS5003;71194;38.900;-77.124;2023-07-13T09:21:29;28;28;
49656;PMS5003;71194;38.900;-77.124;2023-07-13T09:24:00;29;26;
49656;PMS5003;71194;38.900;-77.124;2023-07-13T09:26:42;33;31;
49656;PMS5003;71194;38.900;-77.124;2023-07-13T09:29:11;28;24;
49656;PMS5003;71194;38.900;-77.124;2023-07-13T09:31:43;27;25;
49656;PMS5003;71194;38.900;-77.124;2023-07-13T09:34:15;19;19;
49656;PMS5003;71194;38.900;-77.124;2023-07-13T09:36:44;22;22;
49656;PMS5003;71194;38.900;-77.124;2023-07-13T09:39:14;27;26;
49656;PMS5003;71194;38.900;-77.124;2023-07-13T09:41:50;28;27;
49656;PMS5003;71194;38.900;-77.124;2023-07-13T09:44:27;19;18;
49656;PMS5003;71194;38.900;-77.124;2023-07-13T09:46:57;21;19;
49656;PMS5003;71194;38.900;-77.124;2023-07-13T09:49:25;26;23;
49656;PMS5003;71194;38.900;-77.124;2023-07-13T09:52:00;32;27;
49656;PMS5003;71194;38.900;-77.124;2023-07-13T09:54:32;24;23;
49656;PMS5003;71194;38.900;-77.124;2023-07-13T09:57:01;30;29;
49656;PMS5003;71194;38.900;-77.124;2023-07-13T09:59:32;31;29;
49656;PMS5003;71194;38.900;-77.124;2023-07-13T10:02:01;30;29;
49656;PMS5003;71194;38.900;-77.124;2023-07-13T10:04:53;24;23;
49656;PMS5003;71194;38.900;-77.124;2023-07-13T10:07:24;22;19;
49656;PMS5003;71194;38.900;-77.124;2023-07-13T10:09:53;33;25;
49656;PMS5003;71194;38.900;-77.124;2023-07-13T10:12:21;31;27;
49656;PMS5003;71194;38.900;-77.124;2023-07-13T10:14:49;25;22;
49656;PMS5003;71194;38.900;-77.124;2023-07-13T10:17:19;26;26;
49656;PMS5003;71194;38.900;-77.124;2023-07-13T10:19:53;30;29;
49656;PMS5003;71194;38.900;-77.124;2023-07-13T10:22:23;26;25;
49656;PMS5003;71194;38.900;-77.124;2023-07-13T10:24:56;29;25;
49656;PMS5003;71194;38.900;-77.124;2023-07-13T10:27:26;27;27;
49656;PMS5003;71194;38.900;-77.124;2023-07-13T10:30:02;27;24;
49656;PMS5003;71194;38.900;-77.124;2023-07-13T10:32:38;26;23;
49656;PMS5003;71194;38.900;-77.124;2023-07-13T10:35:09;30;29;
49656;PMS5003;71194;38.900;-77.124;2023-07-13T10:37:43;33;29;
49656;PMS5003;71194;38.900;-77.124;2023-07-13T10:40:18;30;28;
49656;PMS5003;71194;38.900;-77.124;2023-07-13T10:42:51;24;24;
49656;PMS5003;71194;38.900;-77.124;2023-07-13T10:45:23;38;33;
49656;PMS5003;71194;38.900;-77.124;2023-07-13T10:47:52;31;26;
49656;PMS5003;71194;38.900;-77.124;2023-07-13T10:50:22;31;31;
49656;PMS5003;71194;38.900;-77.124;2023-07-13T10:52:52;32;28;
49656;PMS5003;71194;38.900;-77.124;2023-07-13T10:55:37;31;31;
49656;PMS5003;71194;38.900;-77.124;2023-07-13T10:58:12;34;29;
49656;PMS5003;71194;38.900;-77.124;2023-07-13T11:00:49;34;33;
49656;PMS5003;71194;38.900;-77.124;2023-07-13T11:03:25;32;27;
49656;PMS5003;71194;38.900;-77.124;2023-07-13T11:06:04;38;30;
49656;PMS5003;71194;38.900;-77.124;2023-07-13T11:08:37;34;29;
49656;PMS5003;71194;38.900;-77.124;2023-07-13T11:11:32;28;28;
49656;PMS5003;71194;38.900;-77.124;2023-07-13T11:14:03;35;30;
49656;PMS5003;71194;38.900;-77.124;2023-07-13T11:16:51;38;30;
49656;PMS5003;71194;38.900;-77.124;2023-07-13T11:19:28;35;33;
49656;PMS5003;71194;38.900;-77.124;2023-07-13T11:22:12;34;30;
49656;PMS5003;71194;38.900;-77.124;2023-07-13T11:24:49;33;31;
49656;PMS5003;71194;38.900;-77.124;2023-07-13T11:27:22;39;34;
49656;PMS5003;71194;38.900;-77.124;2023-07-13T11:30:06;33;29;
49656;PMS5003;71194;38.900;-77.124;2023-07-13T11:32:44;36;33;
49656;PMS5003;71194;38.900;-77.124;2023-07-13T11:35:17;36;32;
49656;PMS5003;71194;38.900;-77.124;2023-07-13T11:37:49;37;35;
49656;PMS5003;71194;38.900;-77.124;2023-07-13T11:40:17;37;34;
49656;PMS5003;71194;38.900;-77.124;2023-07-13T11:42:49;34;33;
49656;PMS5003;71194;38.900;-77.124;2023-07-13T11:45:20;30;28;
49656;PMS5003;71194;38.900;-77.124;2023-07-13T11:47:49;34;32;
49656;PMS5003;71194;38.900;-77.124;2023-07-13T11:50:18;40;33;
49656;PMS5003;71194;38.900;-77.124;2023-07-13T11:52:47;37;34;
49656;PMS5003;71194;38.900;-77.124;2023-07-13T11:55:17;35;31;
49656;PMS5003;71194;38.900;-77.124;2023-07-13T11:57:49;30;29;
49656;PMS5003;71194;38.900;-77.124;2023-07-13T12:00:22;27;26;
49656;PMS5003;71194;38.900;-77.124;2023-07-13T12:02:54;32;30;
49656;PMS5003;71194;38.900;-77.124;2023-07-13T12:05:24;28;26;
49656;PMS5003;71194;38.900;-77.124;2023-07-13T12:07:52;35;31;
49656;PMS5003;71194;38.900;-77.124;2023-07-13T12:10:22;34;32;
49656;PMS5003;71194;38.900;-77.124;2023-07-13T12:12:52;32;30;
49656;PMS5003;71194;38.900;-77.124;2023-07-13T12:15:22;38;31;
49656;PMS5003;71194;38.900;-77.124;2023-07-13T12:18:10;28;24;
49656;PMS5003;71194;38.900;-77.124;2023-07-13T12:20:40;29;26;
49656;PMS5003;71194;38.900;-77.124;2023-07-13T12:23:11;30;28;
49656;PMS5003;71194;38.900;-77.124;2023-07-13T12:25:47;29;27;
49656;PMS5003;71194;38.900;-77.124;2023-07-13T12:28:28;27;25;
49656;PMS5003;71194;38.900;-77.124;2023-07-13T12:31:00;24;21;
49656;PMS5003;71194;38.900;-77.124;2023-07-13T12:33:30;25;24;
49656;PMS5003;71194;38.900;-77.124;2023-07-13T12:36:00;29;25;
49656;PMS5003;71194;38.900;-77.124;2023-07-13T12:38:30;25;23;
49656;PMS5003;71194;38.900;-77.124;2023-07-13T12:40:58;33;27;
49656;PMS5003;71194;38.900;-77.124;2023-07-13T12:43:30;30;29;
49656;PMS5003;71194;38.900;-77.124;2023-07-13T12:46:04;34;31;
49656;PMS5003;71194;38.900;-77.124;2023-07-13T12:48:47;26;26;
49656;PMS5003;71194;38.900;-77.124;2023-07-13T12:51:16;26;22;
49656;PMS5003;71194;38.900;-77.124;2023-07-13T12:53:48;26;25;
49656;PMS5003;71194;38.900;-77.124;2023-07-13T12:56:21;26;20;
49656;PMS5003;71194;38.900;-77.124;2023-07-13T12:58:56;31;26;
49656;PMS5003;71194;38.900;-77.124;2023-07-13T13:01:28;36;30;
49656;PMS5003;71194;38.900;-77.124;2023-07-13T13:04:00;29;27;
49656;PMS5003;71194;38.900;-77.124;2023-07-13T13:06:29;23;23;
49656;PMS5003;71194;38.900;-77.124;2023-07-13T13:08:58;27;26;
49656;PMS5003;71194;38.900;-77.124;2023-07-13T13:11:27;25;22;
49656;PMS5003;71194;38.900;-77.124;2023-07-13T13:13:56;28;24;
49656;PMS5003;71194;38.900;-77.124;2023-07-13T13:16:26;23;23;
49656;PMS5003;71194;38.900;-77.124;2023-07-13T13:18:59;27;25;
49656;PMS5003;71194;38.900;-77.124;2023-07-13T13:21:39;24;22;
49656;PMS5003;71194;38.900;-77.124;2023-07-13T13:24:10;25;24;
49656;PMS5003;71194;38.900;-77.124;2023-07-13T13:26:39;20;20;
49656;PMS5003;71194;38.900;-77.124;2023-07-13T13:29:11;23;20;
49656;PMS5003;71194;38.900;-77.124;2023-07-13T13:31:40;24;23;
49656;PMS5003;71194;38.900;-77.124;2023-07-13T13:34:09;27;24;
49656;PMS5003;71194;38.900;-77.124;2023-07-13T13:36:38;24;20;
49656;PMS5003;71194;38.900;-77.124;2023-07-13T13:39:10;26;26;
49656;PMS5003;71194;38.900;-77.124;2023-07-13T13:41:47;24;24;
49656;PMS5003;71194;38.900;-77.124;2023-07-13T13:44:15;29;26;
49656;PMS5003;71194;38.900;-77.124;2023-07-13T13:46:44;29;25;
49656;PMS5003;71194;38.900;-77.124;2023-07-13T13:49:15;21;19;
49656;PMS5003;71194;38.900;-77.124;2023-07-13T13:51:45;25;23;
49656;PMS5003;71194;38.900;-77.124;2023-07-13T13:54:14;22;20;
49656;PMS5003;71194;38.900;-77.124;2023-07-13T13:56:44;24;20;
49656;PMS5003;71194;38.900;-77.124;2023-07-13T13:59:13;26;22;
49656;PMS5003;71194;38.900;-77.124;2023-07-13T14:01:42;28;27;
49656;PMS5003;71194;38.900;-77.124;2023-07-13T14:04:13;24;22;
49656;PMS5003;71194;38.900;-77.124;2023-07-13T14:06:43;28;27;
49656;PMS5003;71194;38.900;-77.124;2023-07-13T14:09:12;23;21;
49656;PMS5003;71194;38.900;-77.124;2023-07-13T14:11:42;25;22;
49656;PMS5003;71194;38.900;-77.124;2023-07-13T14:14:12;28;25;
49656;PMS5003;71194;38.900;-77.124;2023-07-13T14:16:44;23;21;
49656;PMS5003;71194;38.900;-77.124;2023-07-13T14:19:12;22;20;
49656;PMS5003;71194;38.900;-77.124;2023-07-13T14:21:41;23;21;
49656;PMS5003;71194;38.900;-77.124;2023-07-13T14:24:09;25;24;
49656;PMS5003;71194;38.900;-77.124;2023-07-13T14:26:38;21;20;
49656;PMS5003;71194;38.900;-77.124;2023-07-13T14:29:12;29;29;
49656;PMS5003;71194;38.900;-77.124;2023-07-13T14:31:41;25;22;
49656;PMS5003;71194;38.900;-77.124;2023-07-13T14:34:10;20;20;
49656;PMS5003;71194;38.900;-77.124;2023-07-13T14:36:40;20;20;
49656;PMS5003;71194;38.900;-77.124;2023-07-13T14:39:11;34;28;
49656;PMS5003;71194;38.900;-77.124;2023-07-13T14:41:41;22;20;
49656;PMS5003;71194;38.900;-77.124;2023-07-13T14:44:13;25;22;
49656;PMS5003;71194;38.900;-77.124;2023-07-13T14:46:42;20;20;
49656;PMS5003;71194;38.900;-77.124;2023-07-13T14:49:13;28;27;
49656;PMS5003;71194;38.900;-77.124;2023-07-13T14:51:51;24;24;
49656;PMS5003;71194;38.900;-77.124;2023-07-13T14:54:21;23;22;
49656;PMS5003;71194;38.900;-77.124;2023-07-13T14:56:49;30;21;
49656;PMS5003;71194;38.900;-77.124;2023-07-13T14:59:17;20;20;
49656;PMS5003;71194;38.900;-77.124;2023-07-13T15:01:46;21;19;
49656;PMS5003;71194;38.900;-77.124;2023-07-13T15:04:15;19;19;
49656;PMS5003;71194;38.900;-77.124;2023-07-13T15:06:54;24;22;
49656;PMS5003;71194;38.900;-77.124;2023-07-13T15:09:23;22;20;
49656;PMS5003;71194;38.900;-77.124;2023-07-13T15:11:52;20;17;
49656;PMS5003;71194;38.900;-77.124;2023-07-13T15:14:21;18;16;
49656;PMS5003;71194;38.900;-77.124;2023-07-13T15:16:49;18;18;
49656;PMS5003;71194;38.900;-77.124;2023-07-13T15:19:20;16;15;
49656;PMS5003;71194;38.900;-77.124;2023-07-13T15:21:48;20;18;
49656;PMS5003;71194;38.900;-77.124;2023-07-13T15:24:16;17;17;
49656;PMS5003;71194;38.900;-77.124;2023-07-13T15:26:44;21;20;
49656;PMS5003;71194;38.900;-77.124;2023-07-13T15:29:12;23;22;
49656;PMS5003;71194;38.900;-77.124;2023-07-13T15:31:39;22;20;
49656;PMS5003;71194;38.900;-77.124;2023-07-13T15:34:10;19;17;
49656;PMS5003;71194;38.900;-77.124;2023-07-13T15:36:40;20;19;
49656;PMS5003;71194;38.900;-77.124;2023-07-13T15:39:08;22;21;
49656;PMS5003;71194;38.900;-77.124;2023-07-13T15:41:41;16;15;
49656;PMS5003;71194;38.900;-77.124;2023-07-13T15:44:20;18;15;
49656;PMS5003;71194;38.900;-77.124;2023-07-13T15:46:53;18;16;
49656;PMS5003;71194;38.900;-77.124;2023-07-13T15:49:22;17;15;
49656;PMS5003;71194;38.900;-77.124;2023-07-13T15:51:50;19;15;
49656;PMS5003;71194;38.900;-77.124;2023-07-13T15:54:18;18;14;
49656;PMS5003;71194;38.900;-77.124;2023-07-13T15:56:47;16;15;
49656;PMS5003;71194;38.900;-77.124;2023-07-13T15:59:19;23;21;
49656;PMS5003;71194;38.900;-77.124;2023-07-13T16:01:48;17;16;
49656;PMS5003;71194;38.900;-77.124;2023-07-13T16:04:16;17;17;